sensor_id;sensor_type;location;lat;lon;timestamp;P1;durP1;ratioP1;P2;durP2;ratioP2
69310;SDS011;56430;48.154;16.458;2022-09-03T00:01:07;11.35;;;1.55;;
69310;SDS011;56430;48.154;16.458;2022-09-03T00:03:38;5.25;;;1.13;;
69310;SDS011;56430;48.154;16.458;2022-09-03T00:06:10;4.15;;;1.15;;
69310;SDS011;56430;48.154;16.458;2022-09-03T00:08:41;3.70;;;1.17;;
69310;SDS011;56430;48.154;16.458;2022-09-03T00:11:12;3.28;;;1.10;;
69310;SDS011;56430;48.154;16.458;2022-09-03T00:13:44;4.57;;;1.00;;
69310;SDS011;56430;48.154;16.458;2022-09-03T00:16:15;4.88;;;1.40;;
69310;SDS011;56430;48.154;16.458;2022-09-03T00:18:45;4.55;;;1.08;;
69310;SDS011;56430;48.154;16.458;2022-09-03T00:21:16;4.90;;;1.40;;
69310;SDS011;56430;48.154;16.458;2022-09-03T00:23:46;14.90;;;0.90;;
69310;SDS011;56430;48.154;16.458;2022-09-03T00:26:19;3.13;;;0.93;;
69310;SDS011;56430;48.154;16.458;2022-09-03T00:28:51;2.50;;;0.90;;
69310;SDS011;56430;48.154;16.458;2022-09-03T00:31:26;7.25;;;1.00;;
69310;SDS011;56430;48.154;16.458;2022-09-03T00:33:57;2.90;;;0.90;;
69310;SDS011;56430;48.154;16.458;2022-09-03T00:36:30;4.53;;;1.00;;
69310;SDS011;56430;48.154;16.458;2022-09-03T00:39:01;3.10;;;0.80;;
69310;SDS011;56430;48.154;16.458;2022-09-03T00:41:30;2.95;;;0.95;;
69310;SDS011;56430;48.154;16.458;2022-09-03T00:44:07;5.25;;;1.00;;
69310;SDS011;56430;48.154;16.458;2022-09-03T00:46:41;6.00;;;1.13;;
69310;SDS011;56430;48.154;16.458;2022-09-03T00:49:18;3.95;;;1.00;;
69310;SDS011;56430;48.154;16.458;2022-09-03T00:51:54;3.55;;;0.90;;
69310;SDS011;56430;48.154;16.458;2022-09-03T00:54:26;3.08;;;0.82;;
69310;SDS011;56430;48.154;16.458;2022-09-03T00:57:03;2.70;;;1.00;;
69310;SDS011;56430;48.154;16.458;2022-09-03T00:59:37;5.70;;;0.80;;
69310;SDS011;56430;48.154;16.458;2022-09-03T01:02:11;3.03;;;1.02;;
69310;SDS011;56430;48.154;16.458;2022-09-03T01:04:46;2.88;;;0.82;;
69310;SDS011;56430;48.154;16.458;2022-09-03T01:07:22;3.38;;;1.00;;
69310;SDS011;56430;48.154;16.458;2022-09-03T01:09:58;4.85;;;1.15;;
69310;SDS011;56430;48.154;16.458;2022-09-03T01:12:36;3.43;;;0.87;;
69310;SDS011;56430;48.154;16.458;2022-09-03T01:15:14;2.17;;;0.80;;
69310;SDS011;56430;48.154;16.458;2022-09-03T01:17:45;3.50;;;0.90;;
69310;SDS011;56430;48.154;16.458;2022-09-03T01:20:26;10.38;;;1.40;;
69310;SDS011;56430;48.154;16.458;2022-09-03T01:26:09;3.50;;;1.20;;
69310;SDS011;56430;48.154;16.458;2022-09-03T01:28:58;9.50;;;1.20;;
69310;SDS011;56430;48.154;16.458;2022-09-03T01:31:31;4.47;;;1.08;;
69310;SDS011;56430;48.154;16.458;2022-09-03T01:34:04;3.38;;;1.20;;
69310;SDS011;56430;48.154;16.458;2022-09-03T01:36:39;4.25;;;1.10;;
69310;SDS011;56430;48.154;16.458;2022-09-03T01:39:10;4.70;;;1.20;;
69310;SDS011;56430;48.154;16.458;2022-09-03T01:41:42;2.70;;;1.00;;
69310;SDS011;56430;48.154;16.458;2022-09-03T01:44:34;4.60;;;1.08;;
69310;SDS011;56430;48.154;16.458;2022-09-03T01:47:12;2.40;;;0.82;;
69310;SDS011;56430;48.154;16.458;2022-09-03T01:49:43;3.00;;;0.90;;
69310;SDS011;56430;48.154;16.458;2022-09-03T01:52:15;4.03;;;1.10;;
69310;SDS011;56430;48.154;16.458;2022-09-03T01:54:47;3.65;;;1.17;;
69310;SDS011;56430;48.154;16.458;2022-09-03T01:57:26;4.93;;;1.17;;
69310;SDS011;56430;48.154;16.458;2022-09-03T02:00:04;3.22;;;1.20;;
69310;SDS011;56430;48.154;16.458;2022-09-03T02:02:32;3.50;;;1.50;;
69310;SDS011;56430;48.154;16.458;2022-09-03T02:05:01;5.17;;;1.53;;
69310;SDS011;56430;48.154;16.458;2022-09-03T02:07:33;2.70;;;1.00;;
69310;SDS011;56430;48.154;16.458;2022-09-03T02:10:02;4.40;;;1.40;;
69310;SDS011;56430;48.154;16.458;2022-09-03T02:12:31;4.10;;;1.15;;
69310;SDS011;56430;48.154;16.458;2022-09-03T02:15:00;4.30;;;1.08;;
69310;SDS011;56430;48.154;16.458;2022-09-03T02:20:53;4.18;;;1.20;;
69310;SDS011;56430;48.154;16.458;2022-09-03T02:23:21;3.38;;;1.05;;
69310;SDS011;56430;48.154;16.458;2022-09-03T02:25:50;4.75;;;1.20;;
69310;SDS011;56430;48.154;16.458;2022-09-03T02:28:18;3.30;;;0.98;;
69310;SDS011;56430;48.154;16.458;2022-09-03T02:30:47;3.77;;;1.17;;
69310;SDS011;56430;48.154;16.458;2022-09-03T02:33:14;4.97;;;1.40;;
69310;SDS011;56430;48.154;16.458;2022-09-03T02:35:42;2.97;;;1.33;;
69310;SDS011;56430;48.154;16.458;2022-09-03T02:38:10;2.58;;;1.13;;
69310;SDS011;56430;48.154;16.458;2022-09-03T02:40:37;4.15;;;1.13;;
69310;SDS011;56430;48.154;16.458;2022-09-03T02:43:06;4.77;;;1.10;;
69310;SDS011;56430;48.154;16.458;2022-09-03T02:45:34;2.85;;;1.05;;
69310;SDS011;56430;48.154;16.458;2022-09-03T02:48:04;2.88;;;1.17;;
69310;SDS011;56430;48.154;16.458;2022-09-03T02:50:32;5.47;;;1.38;;
69310;SDS011;56430;48.154;16.458;2022-09-03T02:53:06;4.18;;;1.10;;
69310;SDS011;56430;48.154;16.458;2022-09-03T02:55:33;3.83;;;1.30;;
69310;SDS011;56430;48.154;16.458;2022-09-03T02:58:00;2.45;;;1.23;;
69310;SDS011;56430;48.154;16.458;2022-09-03T03:00:29;4.97;;;1.25;;
69310;SDS011;56430;48.154;16.458;2022-09-03T03:02:57;3.53;;;1.35;;
69310;SDS011;56430;48.154;16.458;2022-09-03T03:05:25;4.68;;;1.30;;
69310;SDS011;56430;48.154;16.458;2022-09-03T03:07:55;3.47;;;1.17;;
69310;SDS011;56430;48.154;16.458;2022-09-03T03:10:23;3.95;;;1.52;;
69310;SDS011;56430;48.154;16.458;2022-09-03T03:12:50;4.78;;;1.42;;
69310;SDS011;56430;48.154;16.458;2022-09-03T03:15:17;3.08;;;1.20;;
69310;SDS011;56430;48.154;16.458;2022-09-03T03:17:44;3.28;;;1.20;;
69310;SDS011;56430;48.154;16.458;2022-09-03T03:20:11;3.87;;;1.30;;
69310;SDS011;56430;48.154;16.458;2022-09-03T03:22:40;3.00;;;1.30;;
69310;SDS011;56430;48.154;16.458;2022-09-03T03:25:07;4.43;;;1.40;;
69310;SDS011;56430;48.154;16.458;2022-09-03T03:27:35;2.65;;;1.08;;
69310;SDS011;56430;48.154;16.458;2022-09-03T03:30:06;4.45;;;1.80;;
69310;SDS011;56430;48.154;16.458;2022-09-03T03:32:35;4.00;;;1.50;;
69310;SDS011;56430;48.154;16.458;2022-09-03T03:35:03;4.70;;;1.45;;
69310;SDS011;56430;48.154;16.458;2022-09-03T03:37:33;4.95;;;1.27;;
69310;SDS011;56430;48.154;16.458;2022-09-03T03:40:02;4.28;;;1.50;;
69310;SDS011;56430;48.154;16.458;2022-09-03T03:42:31;4.72;;;1.42;;
69310;SDS011;56430;48.154;16.458;2022-09-03T03:44:59;2.97;;;1.37;;
69310;SDS011;56430;48.154;16.458;2022-09-03T03:47:27;3.85;;;1.10;;
69310;SDS011;56430;48.154;16.458;2022-09-03T03:49:55;4.03;;;1.67;;
69310;SDS011;56430;48.154;16.458;2022-09-03T03:52:23;4.20;;;1.30;;
69310;SDS011;56430;48.154;16.458;2022-09-03T03:54:50;3.55;;;1.30;;
69310;SDS011;56430;48.154;16.458;2022-09-03T03:57:20;3.07;;;1.20;;
69310;SDS011;56430;48.154;16.458;2022-09-03T03:59:47;3.90;;;1.60;;
69310;SDS011;56430;48.154;16.458;2022-09-03T04:02:16;3.67;;;1.30;;
69310;SDS011;56430;48.154;16.458;2022-09-03T04:04:44;3.10;;;1.48;;
69310;SDS011;56430;48.154;16.458;2022-09-03T04:07:11;3.30;;;1.02;;
69310;SDS011;56430;48.154;16.458;2022-09-03T04:09:38;5.00;;;1.60;;
69310;SDS011;56430;48.154;16.458;2022-09-03T04:12:05;3.40;;;1.40;;
69310;SDS011;56430;48.154;16.458;2022-09-03T04:14:34;5.28;;;1.48;;
69310;SDS011;56430;48.154;16.458;2022-09-03T04:17:02;3.10;;;1.20;;
69310;SDS011;56430;48.154;16.458;2022-09-03T04:19:29;3.55;;;1.60;;
69310;SDS011;56430;48.154;16.458;2022-09-03T04:21:56;3.20;;;1.67;;
69310;SDS011;56430;48.154;16.458;2022-09-03T04:24:23;3.90;;;1.70;;
69310;SDS011;56430;48.154;16.458;2022-09-03T04:26:51;6.03;;;1.88;;
69310;SDS011;56430;48.154;16.458;2022-09-03T04:29:19;3.38;;;1.20;;
69310;SDS011;56430;48.154;16.458;2022-09-03T04:31:48;4.18;;;1.40;;
69310;SDS011;56430;48.154;16.458;2022-09-03T04:34:33;3.80;;;1.53;;
69310;SDS011;56430;48.154;16.458;2022-09-03T04:37:00;8.20;;;1.35;;
69310;SDS011;56430;48.154;16.458;2022-09-03T04:39:27;4.18;;;1.27;;
69310;SDS011;56430;48.154;16.458;2022-09-03T04:41:54;4.20;;;1.30;;
69310;SDS011;56430;48.154;16.458;2022-09-03T04:44:21;4.50;;;1.23;;
69310;SDS011;56430;48.154;16.458;2022-09-03T04:46:50;3.30;;;1.20;;
69310;SDS011;56430;48.154;16.458;2022-09-03T04:49:17;6.55;;;1.40;;
69310;SDS011;56430;48.154;16.458;2022-09-03T04:51:45;4.70;;;1.80;;
69310;SDS011;56430;48.154;16.458;2022-09-03T04:54:12;6.18;;;1.60;;
69310;SDS011;56430;48.154;16.458;2022-09-03T04:56:39;3.72;;;1.40;;
69310;SDS011;56430;48.154;16.458;2022-09-03T04:59:07;4.53;;;1.47;;
69310;SDS011;56430;48.154;16.458;2022-09-03T05:01:35;3.90;;;1.50;;
69310;SDS011;56430;48.154;16.458;2022-09-03T05:04:05;4.88;;;1.42;;
69310;SDS011;56430;48.154;16.458;2022-09-03T05:06:33;5.28;;;1.40;;
69310;SDS011;56430;48.154;16.458;2022-09-03T05:09:01;3.53;;;1.38;;
69310;SDS011;56430;48.154;16.458;2022-09-03T05:11:29;5.27;;;1.80;;
69310;SDS011;56430;48.154;16.458;2022-09-03T05:13:57;3.50;;;1.50;;
69310;SDS011;56430;48.154;16.458;2022-09-03T05:16:25;4.00;;;1.77;;
69310;SDS011;56430;48.154;16.458;2022-09-03T05:18:55;3.22;;;1.23;;
69310;SDS011;56430;48.154;16.458;2022-09-03T05:21:25;3.88;;;1.80;;
69310;SDS011;56430;48.154;16.458;2022-09-03T05:23:53;3.47;;;1.40;;
69310;SDS011;56430;48.154;16.458;2022-09-03T05:26:21;4.05;;;1.80;;
69310;SDS011;56430;48.154;16.458;2022-09-03T05:28:51;4.20;;;1.70;;
69310;SDS011;56430;48.154;16.458;2022-09-03T05:31:19;4.28;;;1.58;;
69310;SDS011;56430;48.154;16.458;2022-09-03T05:33:48;4.85;;;1.85;;
69310;SDS011;56430;48.154;16.458;2022-09-03T05:36:16;7.23;;;2.00;;
69310;SDS011;56430;48.154;16.458;2022-09-03T05:38:46;3.92;;;1.70;;
69310;SDS011;56430;48.154;16.458;2022-09-03T05:41:13;5.47;;;1.67;;
69310;SDS011;56430;48.154;16.458;2022-09-03T05:43:42;3.78;;;1.55;;
69310;SDS011;56430;48.154;16.458;2022-09-03T05:46:10;7.63;;;1.90;;
69310;SDS011;56430;48.154;16.458;2022-09-03T05:48:41;4.93;;;1.77;;
69310;SDS011;56430;48.154;16.458;2022-09-03T05:51:09;4.47;;;1.67;;
69310;SDS011;56430;48.154;16.458;2022-09-03T05:53:37;4.22;;;1.77;;
69310;SDS011;56430;48.154;16.458;2022-09-03T05:56:07;5.15;;;2.10;;
69310;SDS011;56430;48.154;16.458;2022-09-03T05:58:37;3.58;;;1.73;;
69310;SDS011;56430;48.154;16.458;2022-09-03T06:01:09;4.40;;;1.73;;
69310;SDS011;56430;48.154;16.458;2022-09-03T06:03:37;4.25;;;1.70;;
69310;SDS011;56430;48.154;16.458;2022-09-03T06:06:04;4.90;;;2.15;;
69310;SDS011;56430;48.154;16.458;2022-09-03T06:08:32;4.93;;;2.10;;
69310;SDS011;56430;48.154;16.458;2022-09-03T06:10:59;3.72;;;2.00;;
69310;SDS011;56430;48.154;16.458;2022-09-03T06:13:30;3.47;;;1.80;;
69310;SDS011;56430;48.154;16.458;2022-09-03T06:15:57;8.77;;;1.83;;
69310;SDS011;56430;48.154;16.458;2022-09-03T06:18:25;5.50;;;1.70;;
69310;SDS011;56430;48.154;16.458;2022-09-03T06:20:53;7.07;;;2.97;;
69310;SDS011;56430;48.154;16.458;2022-09-03T06:23:20;4.50;;;1.60;;
69310;SDS011;56430;48.154;16.458;2022-09-03T06:25:47;4.47;;;2.20;;
69310;SDS011;56430;48.154;16.458;2022-09-03T06:28:22;4.07;;;1.60;;
69310;SDS011;56430;48.154;16.458;2022-09-03T06:30:53;5.63;;;1.95;;
69310;SDS011;56430;48.154;16.458;2022-09-03T06:33:23;5.05;;;2.00;;
69310;SDS011;56430;48.154;16.458;2022-09-03T06:35:51;3.65;;;1.95;;
69310;SDS011;56430;48.154;16.458;2022-09-03T06:38:22;4.03;;;2.10;;
69310;SDS011;56430;48.154;16.458;2022-09-03T06:40:53;6.03;;;2.55;;
69310;SDS011;56430;48.154;16.458;2022-09-03T06:43:20;6.30;;;2.47;;
69310;SDS011;56430;48.154;16.458;2022-09-03T06:45:53;7.32;;;2.45;;
69310;SDS011;56430;48.154;16.458;2022-09-03T06:48:21;3.78;;;2.10;;
69310;SDS011;56430;48.154;16.458;2022-09-03T06:50:54;6.53;;;2.70;;
69310;SDS011;56430;48.154;16.458;2022-09-03T06:53:23;5.78;;;2.30;;
69310;SDS011;56430;48.154;16.458;2022-09-03T06:55:52;4.70;;;2.17;;
69310;SDS011;56430;48.154;16.458;2022-09-03T06:58:19;4.10;;;2.13;;
69310;SDS011;56430;48.154;16.458;2022-09-03T07:01:01;5.32;;;2.42;;
69310;SDS011;56430;48.154;16.458;2022-09-03T07:03:31;6.45;;;2.30;;
69310;SDS011;56430;48.154;16.458;2022-09-03T07:06:01;4.50;;;2.23;;
69310;SDS011;56430;48.154;16.458;2022-09-03T07:08:30;4.85;;;2.17;;
69310;SDS011;56430;48.154;16.458;2022-09-03T07:10:57;4.97;;;2.10;;
69310;SDS011;56430;48.154;16.458;2022-09-03T07:13:25;5.93;;;2.20;;
69310;SDS011;56430;48.154;16.458;2022-09-03T07:16:04;3.92;;;1.70;;
69310;SDS011;56430;48.154;16.458;2022-09-03T07:18:32;4.17;;;1.80;;
69310;SDS011;56430;48.154;16.458;2022-09-03T07:21:00;5.25;;;1.70;;
69310;SDS011;56430;48.154;16.458;2022-09-03T07:23:28;5.65;;;1.73;;
69310;SDS011;56430;48.154;16.458;2022-09-03T07:25:56;6.22;;;1.67;;
69310;SDS011;56430;48.154;16.458;2022-09-03T07:28:25;3.25;;;1.65;;
69310;SDS011;56430;48.154;16.458;2022-09-03T07:30:52;5.37;;;1.97;;
69310;SDS011;56430;48.154;16.458;2022-09-03T07:33:22;4.83;;;2.03;;
69310;SDS011;56430;48.154;16.458;2022-09-03T07:35:49;5.82;;;2.10;;
69310;SDS011;56430;48.154;16.458;2022-09-03T07:38:17;6.75;;;2.60;;
69310;SDS011;56430;48.154;16.458;2022-09-03T07:40:45;5.18;;;2.30;;
69310;SDS011;56430;48.154;16.458;2022-09-03T07:43:12;4.43;;;2.50;;
69310;SDS011;56430;48.154;16.458;2022-09-03T07:45:40;8.75;;;2.30;;
69310;SDS011;56430;48.154;16.458;2022-09-03T07:48:10;4.50;;;2.10;;
69310;SDS011;56430;48.154;16.458;2022-09-03T07:50:39;6.65;;;2.67;;
69310;SDS011;56430;48.154;16.458;2022-09-03T07:53:06;6.03;;;2.55;;
69310;SDS011;56430;48.154;16.458;2022-09-03T07:55:33;4.73;;;2.60;;
69310;SDS011;56430;48.154;16.458;2022-09-03T07:58:00;5.23;;;2.40;;
69310;SDS011;56430;48.154;16.458;2022-09-03T08:00:27;3.92;;;2.10;;
69310;SDS011;56430;48.154;16.458;2022-09-03T08:02:57;4.47;;;2.80;;
69310;SDS011;56430;48.154;16.458;2022-09-03T08:05:30;5.35;;;2.88;;
69310;SDS011;56430;48.154;16.458;2022-09-03T08:07:59;5.10;;;2.60;;
69310;SDS011;56430;48.154;16.458;2022-09-03T08:10:26;5.10;;;3.03;;
69310;SDS011;56430;48.154;16.458;2022-09-03T08:12:55;6.32;;;2.70;;
69310;SDS011;56430;48.154;16.458;2022-09-03T08:15:23;6.28;;;2.95;;
69310;SDS011;56430;48.154;16.458;2022-09-03T08:17:51;4.65;;;2.70;;
69310;SDS011;56430;48.154;16.458;2022-09-03T08:20:18;6.20;;;2.63;;
69310;SDS011;56430;48.154;16.458;2022-09-03T08:22:45;7.63;;;2.77;;
69310;SDS011;56430;48.154;16.458;2022-09-03T08:25:14;5.45;;;2.80;;
69310;SDS011;56430;48.154;16.458;2022-09-03T08:27:41;6.93;;;2.78;;
69310;SDS011;56430;48.154;16.458;2022-09-03T08:30:09;13.30;;;3.30;;
69310;SDS011;56430;48.154;16.458;2022-09-03T08:32:37;4.38;;;2.55;;
69310;SDS011;56430;48.154;16.458;2022-09-03T08:35:04;4.32;;;2.38;;
69310;SDS011;56430;48.154;16.458;2022-09-03T08:37:33;8.95;;;2.63;;
69310;SDS011;56430;48.154;16.458;2022-09-03T08:40:01;6.55;;;2.30;;
69310;SDS011;56430;48.154;16.458;2022-09-03T08:42:34;9.73;;;2.30;;
69310;SDS011;56430;48.154;16.458;2022-09-03T08:45:12;5.67;;;2.60;;
69310;SDS011;56430;48.154;16.458;2022-09-03T08:47:43;4.90;;;2.20;;
69310;SDS011;56430;48.154;16.458;2022-09-03T08:50:12;3.92;;;2.63;;
69310;SDS011;56430;48.154;16.458;2022-09-03T08:52:44;4.07;;;2.55;;
69310;SDS011;56430;48.154;16.458;2022-09-03T08:55:19;7.07;;;2.78;;
69310;SDS011;56430;48.154;16.458;2022-09-03T08:57:50;8.77;;;2.80;;
69310;SDS011;56430;48.154;16.458;2022-09-03T09:00:21;8.85;;;2.08;;
69310;SDS011;56430;48.154;16.458;2022-09-03T09:02:52;7.97;;;2.70;;
69310;SDS011;56430;48.154;16.458;2022-09-03T09:05:32;6.53;;;2.10;;
69310;SDS011;56430;48.154;16.458;2022-09-03T09:08:09;4.63;;;2.17;;
69310;SDS011;56430;48.154;16.458;2022-09-03T09:10:42;3.53;;;2.30;;
69310;SDS011;56430;48.154;16.458;2022-09-03T09:13:16;7.47;;;2.40;;
69310;SDS011;56430;48.154;16.458;2022-09-03T09:15:48;7.57;;;2.15;;
69310;SDS011;56430;48.154;16.458;2022-09-03T09:18:22;5.35;;;2.38;;
69310;SDS011;56430;48.154;16.458;2022-09-03T09:20:53;4.97;;;2.00;;
69310;SDS011;56430;48.154;16.458;2022-09-03T09:23:26;5.53;;;2.17;;
69310;SDS011;56430;48.154;16.458;2022-09-03T09:25:55;9.68;;;2.75;;
69310;SDS011;56430;48.154;16.458;2022-09-03T09:28:27;3.90;;;2.25;;
69310;SDS011;56430;48.154;16.458;2022-09-03T09:30:56;3.42;;;1.80;;
69310;SDS011;56430;48.154;16.458;2022-09-03T09:33:24;6.47;;;2.25;;
69310;SDS011;56430;48.154;16.458;2022-09-03T09:35:51;3.30;;;1.87;;
69310;SDS011;56430;48.154;16.458;2022-09-03T09:38:26;3.83;;;1.80;;
69310;SDS011;56430;48.154;16.458;2022-09-03T09:40:54;4.28;;;1.95;;
69310;SDS011;56430;48.154;16.458;2022-09-03T09:43:22;3.95;;;2.20;;
69310;SDS011;56430;48.154;16.458;2022-09-03T09:45:51;8.82;;;2.75;;
69310;SDS011;56430;48.154;16.458;2022-09-03T09:48:20;6.78;;;2.15;;
69310;SDS011;56430;48.154;16.458;2022-09-03T09:51:01;6.25;;;2.00;;
69310;SDS011;56430;48.154;16.458;2022-09-03T09:53:29;6.57;;;2.03;;
69310;SDS011;56430;48.154;16.458;2022-09-03T09:55:56;12.73;;;2.25;;
69310;SDS011;56430;48.154;16.458;2022-09-03T09:58:25;4.22;;;2.10;;
69310;SDS011;56430;48.154;16.458;2022-09-03T10:01:01;9.87;;;2.20;;
69310;SDS011;56430;48.154;16.458;2022-09-03T10:03:39;6.10;;;1.60;;
69310;SDS011;56430;48.154;16.458;2022-09-03T10:06:08;5.68;;;1.67;;
69310;SDS011;56430;48.154;16.458;2022-09-03T10:09:03;4.55;;;1.90;;
69310;SDS011;56430;48.154;16.458;2022-09-03T10:11:32;5.88;;;1.80;;
69310;SDS011;56430;48.154;16.458;2022-09-03T10:14:04;6.72;;;1.85;;
69310;SDS011;56430;48.154;16.458;2022-09-03T10:16:38;4.53;;;1.90;;
69310;SDS011;56430;48.154;16.458;2022-09-03T10:19:08;5.72;;;2.10;;
69310;SDS011;56430;48.154;16.458;2022-09-03T10:21:40;7.05;;;2.08;;
69310;SDS011;56430;48.154;16.458;2022-09-03T10:24:13;3.67;;;1.90;;
69310;SDS011;56430;48.154;16.458;2022-09-03T10:26:45;7.30;;;2.10;;
69310;SDS011;56430;48.154;16.458;2022-09-03T10:29:14;3.17;;;2.00;;
69310;SDS011;56430;48.154;16.458;2022-09-03T10:31:47;11.85;;;2.15;;
69310;SDS011;56430;48.154;16.458;2022-09-03T10:34:22;6.50;;;2.22;;
69310;SDS011;56430;48.154;16.458;2022-09-03T10:36:54;3.67;;;1.88;;
69310;SDS011;56430;48.154;16.458;2022-09-03T10:39:28;3.53;;;1.85;;
69310;SDS011;56430;48.154;16.458;2022-09-03T10:42:04;9.82;;;2.33;;
69310;SDS011;56430;48.154;16.458;2022-09-03T10:44:39;3.55;;;2.10;;
69310;SDS011;56430;48.154;16.458;2022-09-03T10:47:19;5.47;;;1.90;;
69310;SDS011;56430;48.154;16.458;2022-09-03T10:50:05;3.13;;;2.15;;
69310;SDS011;56430;48.154;16.458;2022-09-03T10:52:39;6.63;;;2.10;;
69310;SDS011;56430;48.154;16.458;2022-09-03T10:55:19;8.33;;;2.77;;
69310;SDS011;56430;48.154;16.458;2022-09-03T10:57:53;3.33;;;2.22;;
69310;SDS011;56430;48.154;16.458;2022-09-03T11:00:24;5.90;;;2.22;;
69310;SDS011;56430;48.154;16.458;2022-09-03T11:03:00;4.57;;;2.20;;
69310;SDS011;56430;48.154;16.458;2022-09-03T11:05:36;5.70;;;1.95;;
69310;SDS011;56430;48.154;16.458;2022-09-03T11:08:06;5.80;;;2.13;;
69310;SDS011;56430;48.154;16.458;2022-09-03T11:10:37;6.32;;;1.75;;
69310;SDS011;56430;48.154;16.458;2022-09-03T11:13:07;29.88;;;3.03;;
69310;SDS011;56430;48.154;16.458;2022-09-03T11:15:38;3.67;;;1.88;;
69310;SDS011;56430;48.154;16.458;2022-09-03T11:18:11;7.23;;;1.83;;
69310;SDS011;56430;48.154;16.458;2022-09-03T11:20:43;4.67;;;1.90;;
69310;SDS011;56430;48.154;16.458;2022-09-03T11:23:12;3.60;;;1.88;;
69310;SDS011;56430;48.154;16.458;2022-09-03T11:25:40;4.30;;;2.30;;
69310;SDS011;56430;48.154;16.458;2022-09-03T11:28:12;5.97;;;1.80;;
69310;SDS011;56430;48.154;16.458;2022-09-03T11:30:47;5.25;;;1.70;;
69310;SDS011;56430;48.154;16.458;2022-09-03T11:33:32;4.85;;;1.90;;
69310;SDS011;56430;48.154;16.458;2022-09-03T11:36:05;5.78;;;1.70;;
69310;SDS011;56430;48.154;16.458;2022-09-03T11:38:33;3.42;;;1.95;;
69310;SDS011;56430;48.154;16.458;2022-09-03T11:41:01;16.00;;;1.98;;
69310;SDS011;56430;48.154;16.458;2022-09-03T11:43:30;2.93;;;1.50;;
69310;SDS011;56430;48.154;16.458;2022-09-03T11:46:03;8.17;;;1.63;;
69310;SDS011;56430;48.154;16.458;2022-09-03T11:48:35;9.07;;;1.35;;
69310;SDS011;56430;48.154;16.458;2022-09-03T11:51:14;4.95;;;1.80;;
69310;SDS011;56430;48.154;16.458;2022-09-03T11:53:52;17.00;;;2.13;;
69310;SDS011;56430;48.154;16.458;2022-09-03T11:56:20;7.53;;;1.80;;
69310;SDS011;56430;48.154;16.458;2022-09-03T11:58:57;5.10;;;1.63;;
69310;SDS011;56430;48.154;16.458;2022-09-03T12:01:26;16.83;;;1.83;;
69310;SDS011;56430;48.154;16.458;2022-09-03T12:03:57;4.45;;;1.70;;
69310;SDS011;56430;48.154;16.458;2022-09-03T12:09:28;10.47;;;1.87;;
69310;SDS011;56430;48.154;16.458;2022-09-03T12:12:26;5.03;;;1.60;;
69310;SDS011;56430;48.154;16.458;2022-09-03T12:15:01;3.72;;;1.70;;
69310;SDS011;56430;48.154;16.458;2022-09-03T12:17:34;2.53;;;1.33;;
69310;SDS011;56430;48.154;16.458;2022-09-03T12:20:11;6.88;;;1.58;;
69310;SDS011;56430;48.154;16.458;2022-09-03T12:22:40;17.83;;;2.20;;
69310;SDS011;56430;48.154;16.458;2022-09-03T12:25:08;4.43;;;1.52;;
69310;SDS011;56430;48.154;16.458;2022-09-03T12:27:36;5.80;;;1.80;;
69310;SDS011;56430;48.154;16.458;2022-09-03T12:30:03;3.55;;;1.70;;
69310;SDS011;56430;48.154;16.458;2022-09-03T12:32:39;6.45;;;1.55;;
69310;SDS011;56430;48.154;16.458;2022-09-03T12:35:12;5.47;;;1.50;;
69310;SDS011;56430;48.154;16.458;2022-09-03T12:37:41;4.07;;;1.63;;
69310;SDS011;56430;48.154;16.458;2022-09-03T12:40:15;2.35;;;1.30;;
69310;SDS011;56430;48.154;16.458;2022-09-03T12:42:44;5.78;;;1.58;;
69310;SDS011;56430;48.154;16.458;2022-09-03T12:45:11;6.65;;;1.55;;
69310;SDS011;56430;48.154;16.458;2022-09-03T12:47:41;5.18;;;1.30;;
69310;SDS011;56430;48.154;16.458;2022-09-03T12:50:10;6.22;;;1.42;;
69310;SDS011;56430;48.154;16.458;2022-09-03T12:52:40;9.98;;;1.40;;
69310;SDS011;56430;48.154;16.458;2022-09-03T12:55:15;9.57;;;1.70;;
69310;SDS011;56430;48.154;16.458;2022-09-03T12:57:50;4.93;;;1.40;;
69310;SDS011;56430;48.154;16.458;2022-09-03T13:00:20;2.67;;;1.37;;
69310;SDS011;56430;48.154;16.458;2022-09-03T13:02:48;2.63;;;1.40;;
69310;SDS011;56430;48.154;16.458;2022-09-03T13:05:19;3.28;;;1.30;;
69310;SDS011;56430;48.154;16.458;2022-09-03T13:07:48;3.92;;;1.50;;
69310;SDS011;56430;48.154;16.458;2022-09-03T13:10:22;3.80;;;1.42;;
69310;SDS011;56430;48.154;16.458;2022-09-03T13:12:56;2.75;;;1.50;;
69310;SDS011;56430;48.154;16.458;2022-09-03T13:15:25;3.25;;;1.20;;
69310;SDS011;56430;48.154;16.458;2022-09-03T13:17:56;5.07;;;1.27;;
69310;SDS011;56430;48.154;16.458;2022-09-03T13:20:34;3.60;;;1.48;;
69310;SDS011;56430;48.154;16.458;2022-09-03T13:23:12;2.95;;;1.25;;
69310;SDS011;56430;48.154;16.458;2022-09-03T13:25:49;5.20;;;1.70;;
69310;SDS011;56430;48.154;16.458;2022-09-03T13:28:25;7.50;;;1.80;;
69310;SDS011;56430;48.154;16.458;2022-09-03T13:31:02;4.68;;;1.25;;
69310;SDS011;56430;48.154;16.458;2022-09-03T13:33:36;3.42;;;1.55;;
69310;SDS011;56430;48.154;16.458;2022-09-03T13:36:09;3.22;;;1.58;;
69310;SDS011;56430;48.154;16.458;2022-09-03T13:38:41;2.70;;;1.50;;
69310;SDS011;56430;48.154;16.458;2022-09-03T13:41:11;3.72;;;1.90;;
69310;SDS011;56430;48.154;16.458;2022-09-03T13:43:44;4.05;;;1.48;;
69310;SDS011;56430;48.154;16.458;2022-09-03T13:46:15;5.10;;;1.65;;
69310;SDS011;56430;48.154;16.458;2022-09-03T13:48:44;4.35;;;1.63;;
69310;SDS011;56430;48.154;16.458;2022-09-03T13:51:38;5.23;;;1.27;;
69310;SDS011;56430;48.154;16.458;2022-09-03T13:54:11;2.87;;;1.70;;
69310;SDS011;56430;48.154;16.458;2022-09-03T13:59:28;4.55;;;1.50;;
69310;SDS011;56430;48.154;16.458;2022-09-03T14:02:04;5.85;;;1.70;;
69310;SDS011;56430;48.154;16.458;2022-09-03T14:04:39;3.33;;;1.63;;
69310;SDS011;56430;48.154;16.458;2022-09-03T14:07:14;4.18;;;1.33;;
69310;SDS011;56430;48.154;16.458;2022-09-03T14:09:50;3.47;;;1.58;;
69310;SDS011;56430;48.154;16.458;2022-09-03T14:12:24;3.47;;;1.30;;
69310;SDS011;56430;48.154;16.458;2022-09-03T14:15:06;3.97;;;1.42;;
69310;SDS011;56430;48.154;16.458;2022-09-03T14:17:38;8.47;;;1.90;;
69310;SDS011;56430;48.154;16.458;2022-09-03T14:20:07;3.17;;;1.53;;
69310;SDS011;56430;48.154;16.458;2022-09-03T14:22:43;4.40;;;1.33;;
69310;SDS011;56430;48.154;16.458;2022-09-03T14:25:16;2.92;;;1.40;;
69310;SDS011;56430;48.154;16.458;2022-09-03T14:27:44;3.63;;;1.30;;
69310;SDS011;56430;48.154;16.458;2022-09-03T14:30:18;2.45;;;1.50;;
69310;SDS011;56430;48.154;16.458;2022-09-03T14:32:53;4.93;;;1.40;;
69310;SDS011;56430;48.154;16.458;2022-09-03T14:38:36;4.60;;;1.58;;
69310;SDS011;56430;48.154;16.458;2022-09-03T14:41:21;3.63;;;1.33;;
69310;SDS011;56430;48.154;16.458;2022-09-03T14:44:26;6.90;;;1.70;;
69310;SDS011;56430;48.154;16.458;2022-09-03T14:47:06;3.23;;;1.40;;
69310;SDS011;56430;48.154;16.458;2022-09-03T14:49:43;5.47;;;1.60;;
69310;SDS011;56430;48.154;16.458;2022-09-03T14:52:21;10.85;;;1.92;;
69310;SDS011;56430;48.154;16.458;2022-09-03T14:55:03;4.18;;;1.42;;
69310;SDS011;56430;48.154;16.458;2022-09-03T14:57:40;2.88;;;1.40;;
69310;SDS011;56430;48.154;16.458;2022-09-03T15:00:15;2.60;;;1.40;;
69310;SDS011;56430;48.154;16.458;2022-09-03T15:02:48;2.90;;;1.40;;
69310;SDS011;56430;48.154;16.458;2022-09-03T15:05:37;7.20;;;1.38;;
69310;SDS011;56430;48.154;16.458;2022-09-03T15:08:10;3.28;;;1.30;;
69310;SDS011;56430;48.154;16.458;2022-09-03T15:10:47;7.47;;;1.30;;
69310;SDS011;56430;48.154;16.458;2022-09-03T15:13:18;4.30;;;1.47;;